EDLP/PAD METAR and TAF weather

Enter ICAO airport designator
Station Type Date Time Source
EDLP METAR 2021/04/17 19:50 UTC NOAA

EDLP 171950Z VRB02KT CAVOK 09/00 Q1022


Station Type Date Time Source
EDLP Decoded METAR 2021/04/17 19:50 UTC NOAA

Paderborn / Lippstadt, Germany (EDLP) 51-37N 008-37E
Apr 17, 2021 - 03:50 PM EDT / 2021.04.17 1950 UTC
Wind: Variable at 2 MPH (2 KT):0
Visibility: greater than 7 mile(s):0
Temperature: 48 F (9 C)
Dew Point: 32 F (0 C)
Relative Humidity: 53%
Pressure (altimeter): 30.18 in. Hg (1022 hPa)
ob: EDLP 171950Z VRB02KT CAVOK 09/00 Q1022
cycle: 20

Station Type Date Time Source
EDLP TAF 2021/04/17 21:06 UTC NOAA

TAF EDLP 172101Z 1721/1818 CNL

Example: see airport list